^^
Datos históricos de la estación: Murcia-Puente Tocinos
Diario Informe para Agosto 26, 2019 Unidades:  Ambas    Ingés   Métrico
Diario Semanal Mensual Anual
  Máxima: Mínima: Promedio:
Temperatura: 96.4 °F /  35.8 °C 74.1 °F /  23.4 °C 84.7 °F /  29.3 °C
Punto de rocio: 72.7 °F /  22.6 °C 56.8 °F /  13.8 °C 65.1 °F /  18.4 °C
Humedad: 87% 29% 56%
Velocidad viento: 12.5mph /  20.1km/h - 4.7mph /  7.6km/h
Racha viento: 21mph /  33.8km/h - -
Viento- - SE
Presión: 29.9 in /  1011.9 hPa 29.7 in /  1004.1 hPa -
Precipitación: 0 in /  0.0 mm    
 
 
Tabla de datos para Agosto 26, 2019
Hora Temperatura Punto de rocio Presión Viento Velocidad viento Racha viento Humedad Intensidad lluvia(por hora) Nubes
00:04 78.3 °F /  25.7 °C 72.3 °F /  22.4 °C 29.9in /  1011.9hPa NE 5.4mph /  8.7km/h 9mph /  14.5km/h 82% 0in /  0.0mm
00:09 78.3 °F /  25.7 °C 72.1 °F /  22.3 °C 29.9in /  1011.9hPa NE 5.2mph /  8.4km/h 8mph /  12.9km/h 81.7% 0in /  0.0mm
00:14 78.3 °F /  25.7 °C 72 °F /  22.2 °C 29.9in /  1011.9hPa NE 4.7mph /  7.6km/h 8.1mph /  13km/h 81.1% 0in /  0.0mm
00:19 78.3 °F /  25.7 °C 72.1 °F /  22.3 °C 29.9in /  1011.9hPa NE 4.8mph /  7.8km/h 8.1mph /  13km/h 81.7% 0in /  0.0mm
00:24 78.3 °F /  25.7 °C 72.1 °F /  22.3 °C 29.9in /  1011.8hPa NE 5.2mph /  8.4km/h 8mph /  12.9km/h 81.3% 0in /  0.0mm
00:29 78.4 °F /  25.8 °C 72.1 °F /  22.3 °C 29.9in /  1011.8hPa NE 4.8mph /  7.8km/h 7.6mph /  12.2km/h 81% 0in /  0.0mm
00:34 78.4 °F /  25.8 °C 72.1 °F /  22.3 °C 29.9in /  1011.8hPa NE 4mph /  6.5km/h 8mph /  12.9km/h 81% 0in /  0.0mm
00:39 78.3 °F /  25.7 °C 72.3 °F /  22.4 °C 29.9in /  1011.8hPa NE 3.9mph /  6.3km/h 7mph /  11.3km/h 81.8% 0in /  0.0mm
00:44 78.3 °F /  25.7 °C 72.3 °F /  22.4 °C 29.9in /  1011.8hPa NNE 3.6mph /  5.8km/h 6mph /  9.7km/h 82% 0in /  0.0mm
00:49 78.3 °F /  25.7 °C 72.1 °F /  22.3 °C 29.9in /  1011.8hPa NNE 3.2mph /  5.2km/h 5mph /  8km/h 82% 0in /  0.0mm
00:54 78.1 °F /  25.6 °C 72.1 °F /  22.3 °C 29.9in /  1011.8hPa NNE 2.4mph /  3.9km/h 5.2mph /  8.4km/h 82.3% 0in /  0.0mm
00:59 78.1 °F /  25.6 °C 72.5 °F /  22.5 °C 29.9in /  1011.8hPa NNE 2.5mph /  4.1km/h 5.8mph /  9.3km/h 83% 0in /  0.0mm
01:04 78.1 °F /  25.6 °C 72.5 °F /  22.5 °C 29.9in /  1011.8hPa NNE 2.9mph /  4.6km/h 6mph /  9.7km/h 83% 0in /  0.0mm
01:09 78.1 °F /  25.6 °C 72.5 °F /  22.5 °C 29.9in /  1011.7hPa NNE 2.7mph /  4.4km/h 6.2mph /  10km/h 83.2% 0in /  0.0mm
01:14 77.7 °F /  25.4 °C 72.7 °F /  22.6 °C 29.9in /  1011.7hPa NNE 2.4mph /  3.9km/h 6mph /  9.7km/h 84% 0in /  0.0mm
01:19 77.7 °F /  25.4 °C 72.5 °F /  22.5 °C 29.9in /  1011.7hPa NE 2.7mph /  4.4km/h 6.2mph /  10km/h 84% 0in /  0.0mm
01:24 77.5 °F /  25.3 °C 72.7 °F /  22.6 °C 29.9in /  1011.6hPa NE 3.6mph /  5.8km/h 6.9mph /  11.1km/h 84.9% 0in /  0.0mm
01:29 77.4 °F /  25.2 °C 72.7 °F /  22.6 °C 29.9in /  1011.6hPa NNE 3.7mph /  6km/h 7mph /  11.3km/h 85% 0in /  0.0mm
01:34 77.4 °F /  25.2 °C 72.7 °F /  22.6 °C 29.9in /  1011.6hPa NNE 4mph /  6.5km/h 7mph /  11.3km/h 85.6% 0in /  0.0mm
01:39 77.2 °F /  25.1 °C 72.7 °F /  22.6 °C 29.9in /  1011.3hPa North 3.9mph /  6.3km/h 6mph /  9.7km/h 86% 0in /  0.0mm
01:44 77.2 °F /  25.1 °C 72.7 °F /  22.6 °C 29.9in /  1011.3hPa NNE 3.6mph /  5.8km/h 5mph /  8km/h 86% 0in /  0.0mm
01:49 77.2 °F /  25.1 °C 72.7 °F /  22.6 °C 29.9in /  1011.3hPa NE 3.4mph /  5.4km/h 5.2mph /  8.4km/h 86% 0in /  0.0mm
01:54 77.2 °F /  25.1 °C 72.7 °F /  22.6 °C 29.9in /  1011.3hPa NE 2.9mph /  4.7km/h 5.8mph /  9.3km/h 86% 0in /  0.0mm
01:59 77 °F /  25 °C 72.7 °F /  22.6 °C 29.9in /  1011.3hPa ENE 3mph /  4.8km/h 6mph /  9.7km/h 86.3% 0in /  0.0mm
02:04 76.8 °F /  24.9 °C 72.7 °F /  22.6 °C 29.9in /  1011.3hPa NE 3.1mph /  5km/h 5.9mph /  9.5km/h 87% 0in /  0.0mm
02:09 76.8 °F /  24.9 °C 72.7 °F /  22.6 °C 29.9in /  1011.0hPa NE 3.2mph /  5.2km/h 6mph /  9.7km/h 87% 0in /  0.0mm
02:14 76.8 °F /  24.9 °C 72.7 °F /  22.6 °C 29.9in /  1011.0hPa NE 3.6mph /  5.8km/h 6mph /  9.7km/h 87% 0in /  0.0mm
02:19 76.8 °F /  24.9 °C 72.7 °F /  22.6 °C 29.9in /  1011.0hPa NE 3.4mph /  5.5km/h 5mph /  8km/h 87% 0in /  0.0mm
02:24 76.6 °F /  24.8 °C 72.5 °F /  22.5 °C 29.9in /  1010.9hPa NE 2.9mph /  4.7km/h 4mph /  6.4km/h 87% 0in /  0.0mm
02:29 76.8 °F /  24.9 °C 72.7 °F /  22.6 °C 29.9in /  1010.9hPa ENE 2mph /  3.2km/h 4mph /  6.4km/h 87% 0in /  0.0mm
02:34 76.8 °F /  24.9 °C 72.5 °F /  22.5 °C 29.9in /  1010.9hPa Calm   4.3mph /  6.9km/h 86.7% 0in /  0.0mm
02:39 76.8 °F /  24.9 °C 72.3 °F /  22.4 °C 29.8in /  1010.6hPa ESE 0.9mph /  1.4km/h 5mph /  8km/h 86% 0in /  0.0mm
02:44 76.8 °F /  24.9 °C 72.3 °F /  22.4 °C 29.8in /  1010.6hPa ESE 2.9mph /  4.7km/h 5mph /  8km/h 86% 0in /  0.0mm
02:49 76.8 °F /  24.9 °C 72.3 °F /  22.4 °C 29.8in /  1010.7hPa SE 2.6mph /  4.2km/h 5mph /  8km/h 86% 0in /  0.0mm
02:54 76.6 °F /  24.8 °C 72.1 °F /  22.3 °C 29.8in /  1010.7hPa SE 2mph /  3.2km/h 5mph /  8km/h 86% 0in /  0.0mm
02:59 76.6 °F /  24.8 °C 72.1 °F /  22.3 °C 29.8in /  1010.7hPa SE 1.4mph /  2.2km/h   86% 0in /  0.0mm
03:04 76.6 °F /  24.8 °C 72.1 °F /  22.3 °C 29.8in /  1010.7hPa Calm   3.6mph /  5.8km/h 86% 0in /  0.0mm
03:09 76.6 °F /  24.8 °C 72.1 °F /  22.3 °C 29.8in /  1010.4hPa OSO 0.4mph /  0.7km/h 4mph /  6.4km/h 86% 0in /  0.0mm
03:14 76.6 °F /  24.8 °C 72.1 °F /  22.3 °C 29.8in /  1010.4hPa OSO 1.4mph /  2.2km/h 3mph /  4.8km/h 86% 0in /  0.0mm
03:19 76.6 °F /  24.8 °C 72.1 °F /  22.3 °C 29.8in /  1010.4hPa OSO 1mph /  1.6km/h   86% 0in /  0.0mm
03:24 76.6 °F /  24.8 °C 72.1 °F /  22.3 °C 29.8in /  1010.3hPa Calm   3.6mph /  5.8km/h 86% 0in /  0.0mm
03:29 76.6 °F /  24.8 °C 72.1 °F /  22.3 °C 29.8in /  1010.3hPa Oeste 0.4mph /  0.7km/h 4mph /  6.4km/h 86% 0in /  0.0mm
03:34 76.6 °F /  24.8 °C 72 °F /  22.2 °C 29.8in /  1010.3hPa Sur 1.4mph /  2.2km/h 4.7mph /  7.6km/h 85.3% 0in /  0.0mm
03:39 76.6 °F /  24.8 °C 71.8 °F /  22.1 °C 29.8in /  1010.2hPa SE 1.6mph /  2.5km/h 5mph /  8km/h 84.8% 0in /  0.0mm
03:44 76.6 °F /  24.8 °C 71.1 °F /  21.7 °C 29.8in /  1010.2hPa SSE 2mph /  3.2km/h 5.9mph /  9.5km/h 83.3% 0in /  0.0mm
03:49 76.3 °F /  24.6 °C 69.8 °F /  21 °C 29.8in /  1010.2hPa SSO 2.5mph /  4km/h 6.9mph /  11.1km/h 80.3% 0in /  0.0mm
03:54 76.3 °F /  24.6 °C 68.7 °F /  20.4 °C 29.8in /  1009.9hPa Sur 3.6mph /  5.8km/h 7mph /  11.3km/h 77.6% 0in /  0.0mm
03:59 76.3 °F /  24.6 °C 68.4 °F /  20.2 °C 29.8in /  1009.9hPa SSO 3.6mph /  5.8km/h 6mph /  9.7km/h 76.3% 0in /  0.0mm
04:04 76.3 °F /  24.6 °C 68.2 °F /  20.1 °C 29.8in /  1009.9hPa SO 3.6mph /  5.8km/h 5.8mph /  9.3km/h 76% 0in /  0.0mm
04:09 76.5 °F /  24.7 °C 68.4 °F /  20.2 °C 29.8in /  1009.9hPa SO 3.4mph /  5.5km/h 6.9mph /  11.1km/h 76% 0in /  0.0mm
04:14 76.6 °F /  24.8 °C 68.5 °F /  20.3 °C 29.8in /  1009.9hPa SO 3.1mph /  5km/h 7mph /  11.3km/h 76% 0in /  0.0mm
04:19 76.6 °F /  24.8 °C 68.5 °F /  20.3 °C 29.8in /  1010.0hPa SO 3mph /  4.9km/h 6mph /  9.7km/h 76% 0in /  0.0mm
04:24 76.6 °F /  24.8 °C 68.5 °F /  20.3 °C 29.8in /  1010.0hPa OSO 2.9mph /  4.7km/h 6mph /  9.7km/h 76% 0in /  0.0mm
04:29 76.6 °F /  24.8 °C 68.5 °F /  20.3 °C 29.8in /  1010.0hPa Oeste 2.9mph /  4.7km/h 6mph /  9.7km/h 76% 0in /  0.0mm
04:34 76.5 °F /  24.7 °C 68.5 °F /  20.3 °C 29.8in /  1010.0hPa Oeste 2.9mph /  4.7km/h 5mph /  8km/h 76.7% 0in /  0.0mm
04:39 76.5 °F /  24.7 °C 68.7 °F /  20.4 °C 29.8in /  1009.9hPa OSO 2.6mph /  4.2km/h 5mph /  8km/h 77.1% 0in /  0.0mm
04:44 76.5 °F /  24.7 °C 69.1 °F /  20.6 °C 29.8in /  1009.9hPa SO 2mph /  3.2km/h 6.9mph /  11.1km/h 78% 0in /  0.0mm
04:49 76.5 °F /  24.7 °C 69.1 °F /  20.6 °C 29.8in /  1009.9hPa OSO 2.5mph /  4km/h 7mph /  11.3km/h 78% 0in /  0.0mm
04:54 76.5 °F /  24.7 °C 68.9 °F /  20.5 °C 29.8in /  1009.8hPa Sur 3.6mph /  5.8km/h 6.4mph /  10.3km/h 77.4% 0in /  0.0mm
04:59 76.3 °F /  24.6 °C 68.5 °F /  20.3 °C 29.8in /  1009.8hPa Sur 3.6mph /  5.8km/h 7mph /  11.3km/h 77% 0in /  0.0mm
05:04 76.1 °F /  24.5 °C 68.4 °F /  20.2 °C 29.8in /  1009.8hPa SSO 3.6mph /  5.8km/h 8.1mph /  13km/h 77% 0in /  0.0mm
05:09 75.9 °F /  24.4 °C 67.8 °F /  19.9 °C 29.8in /  1009.7hPa SSO 4.1mph /  6.6km/h 9.2mph /  14.8km/h 75.9% 0in /  0.0mm
05:14 75.7 °F /  24.3 °C 67.3 °F /  19.6 °C 29.8in /  1009.7hPa SSO 5.4mph /  8.7km/h 9mph /  14.5km/h 75% 0in /  0.0mm
05:19 75.7 °F /  24.3 °C 66.9 °F /  19.4 °C 29.8in /  1009.7hPa SO 5.4mph /  8.7km/h 8.1mph /  13km/h 74.3% 0in /  0.0mm
05:24 75.7 °F /  24.3 °C 67.3 °F /  19.6 °C 29.8in /  1009.7hPa SSO 5.4mph /  8.7km/h 8mph /  12.9km/h 75% 0in /  0.0mm
05:29 75.7 °F /  24.3 °C 67.3 °F /  19.6 °C 29.8in /  1009.7hPa SSO 4.8mph /  7.8km/h 6.2mph /  10km/h 75.3% 0in /  0.0mm
05:34 75.7 °F /  24.3 °C 67.6 °F /  19.8 °C 29.8in /  1009.7hPa SSO 3.6mph /  5.8km/h 6mph /  9.7km/h 76% 0in /  0.0mm
05:39 75.7 °F /  24.3 °C 67.6 °F /  19.8 °C 29.8in /  1009.6hPa SSO 3.6mph /  5.8km/h 6mph /  9.7km/h 76.2% 0in /  0.0mm
05:44 75.7 °F /  24.3 °C 67.6 °F /  19.8 °C 29.8in /  1009.6hPa SO 3.6mph /  5.8km/h 6mph /  9.7km/h 76% 0in /  0.0mm
05:49 75.7 °F /  24.3 °C 67.5 °F /  19.7 °C 29.8in /  1009.7hPa SO 3.4mph /  5.5km/h 8.1mph /  13km/h 75.5% 0in /  0.0mm
05:54 75.7 °F /  24.3 °C 67.3 °F /  19.6 °C 29.8in /  1009.7hPa OSO 3.1mph /  5km/h 8.1mph /  13km/h 75% 0in /  0.0mm
05:59 75.7 °F /  24.3 °C 67.3 °F /  19.6 °C 29.8in /  1009.7hPa SO 3.7mph /  5.9km/h 8mph /  12.9km/h 75% 0in /  0.0mm
06:04 75.7 °F /  24.3 °C 67.3 °F /  19.6 °C 29.8in /  1009.7hPa SO 4.7mph /  7.6km/h 7mph /  11.3km/h 75% 0in /  0.0mm
06:09 75.7 °F /  24.3 °C 67.5 °F /  19.7 °C 29.8in /  1009.7hPa SO 4.4mph /  7.1km/h 7mph /  11.3km/h 75.6% 0in /  0.0mm
06:14 75.6 °F /  24.2 °C 67.5 °F /  19.7 °C 29.8in /  1009.7hPa OSO 3.6mph /  5.8km/h 6mph /  9.7km/h 76% 0in /  0.0mm
06:19 75.6 °F /  24.2 °C 67.1 °F /  19.5 °C 29.8in /  1009.7hPa ONO 3.4mph /  5.5km/h 6mph /  9.7km/h 75.1% 0in /  0.0mm
06:24 75.4 °F /  24.1 °C 66.9 °F /  19.4 °C 29.8in /  1009.6hPa Oeste 2.9mph /  4.7km/h 5.2mph /  8.4km/h 75% 0in /  0.0mm
06:29 75 °F /  23.9 °C 66.9 °F /  19.4 °C 29.8in /  1009.6hPa OSO 2.7mph /  4.4km/h 5mph /  8km/h 76% 0in /  0.0mm
06:34 75 °F /  23.9 °C 66.9 °F /  19.4 °C 29.8in /  1009.6hPa OSO 2.4mph /  3.9km/h 5mph /  8km/h 76% 0in /  0.0mm
06:39 75 °F /  23.9 °C 66.9 °F /  19.4 °C 29.8in /  1009.4hPa OSO 1.7mph /  2.7km/h   76% 0in /  0.0mm
06:44 75 °F /  23.9 °C 66.9 °F /  19.4 °C 29.8in /  1009.4hPa Calm     76% 0in /  0.0mm
06:49 75 °F /  23.9 °C 66.9 °F /  19.4 °C 29.8in /  1009.4hPa Calm   3.6mph /  5.8km/h 75.9% 0in /  0.0mm
06:54 74.8 °F /  23.8 °C 66.7 °F /  19.3 °C 29.8in /  1009.4hPa Calm   4.3mph /  6.9km/h 75.9% 0in /  0.0mm
06:59 74.7 °F /  23.7 °C 66.6 °F /  19.2 °C 29.8in /  1009.4hPa SSE 0.9mph /  1.5km/h 5.9mph /  9.5km/h 76% 0in /  0.0mm
07:04 74.5 °F /  23.6 °C 66.4 °F /  19.1 °C 29.8in /  1009.4hPa SSE 2.9mph /  4.6km/h 6.2mph /  10km/h 76.3% 0in /  0.0mm
07:09 74.1 °F /  23.4 °C 66.4 °F /  19.1 °C 29.8in /  1009.4hPa ESE 3.1mph /  5km/h 6mph /  9.7km/h 77% 0in /  0.0mm
07:14 74.1 °F /  23.4 °C 66.6 °F /  19.2 °C 29.8in /  1009.4hPa SE 3.6mph /  5.8km/h 5mph /  8km/h 77% 0in /  0.0mm
07:19 74.1 °F /  23.4 °C 66.4 °F /  19.1 °C 29.8in /  1009.5hPa SSE 3.4mph /  5.5km/h 6.9mph /  11.1km/h 77% 0in /  0.0mm
07:24 74.1 °F /  23.4 °C 66.4 °F /  19.1 °C 29.8in /  1009.5hPa SSE 2.9mph /  4.7km/h 7mph /  11.3km/h 77% 0in /  0.0mm
07:29 74.1 °F /  23.4 °C 66.4 °F /  19.1 °C 29.8in /  1009.5hPa Sur 3.4mph /  5.5km/h 7mph /  11.3km/h 76.8% 0in /  0.0mm
07:34 74.3 °F /  23.5 °C 66.2 °F /  19 °C 29.8in /  1009.7hPa Sur 4.7mph /  7.6km/h 6mph /  9.7km/h 76% 0in /  0.0mm
07:39 74.5 °F /  23.6 °C 66.4 °F /  19.1 °C 29.8in /  1009.7hPa Sur 4.5mph /  7.2km/h 6.9mph /  11.1km/h 76% 0in /  0.0mm
07:44 74.5 °F /  23.6 °C 66 °F /  18.9 °C 29.8in /  1009.7hPa Sur 4mph /  6.5km/h 7mph /  11.3km/h 75.1% 0in /  0.0mm
07:49 74.5 °F /  23.6 °C 65.5 °F /  18.6 °C 29.8in /  1009.7hPa SSO 4mph /  6.5km/h 8.5mph /  13.7km/h 73.3% 0in /  0.0mm
07:54 74.7 °F /  23.7 °C 64.8 °F /  18.2 °C 29.8in /  1009.7hPa SO 4mph /  6.5km/h 9mph /  14.5km/h 71.2% 0in /  0.0mm
07:59 74.8 °F /  23.8 °C 63.7 °F /  17.6 °C 29.8in /  1009.7hPa SO 4.2mph /  6.8km/h 9mph /  14.5km/h 68.2% 0in /  0.0mm
08:04 74.8 °F /  23.8 °C 63.3 °F /  17.4 °C 29.8in /  1009.8hPa OSO 4.7mph /  7.6km/h 10.7mph /  17.2km/h 67.4% 0in /  0.0mm
08:09 74.8 °F /  23.8 °C 63.3 °F /  17.4 °C 29.8in /  1009.8hPa OSO 4.9mph /  7.9km/h 11mph /  17.7km/h 67.4% 0in /  0.0mm
08:14 75 °F /  23.9 °C 63.9 °F /  17.7 °C 29.8in /  1009.8hPa OSO 5.4mph /  8.7km/h 10mph /  16.1km/h 68.2% 0in /  0.0mm
08:19 75 °F /  23.9 °C 64.2 °F /  17.9 °C 29.8in /  1010.0hPa Oeste 5.1mph /  8.2km/h 7.4mph /  11.9km/h 69% 0in /  0.0mm
08:24 75.2 °F /  24 °C 64.2 °F /  17.9 °C 29.8in /  1010.0hPa Oeste 4.3mph /  6.9km/h 7.6mph /  12.2km/h 69% 0in /  0.0mm
08:29 75.2 °F /  24 °C 64 °F /  17.8 °C 29.8in /  1010.0hPa Oeste 4.3mph /  6.9km/h 8.1mph /  13km/h 68.3% 0in /  0.0mm
08:34 75 °F /  23.9 °C 63.9 °F /  17.7 °C 29.8in /  1010.0hPa Oeste 4.3mph /  6.9km/h 8mph /  12.9km/h 68.1% 0in /  0.0mm
08:39 75.2 °F /  24 °C 63.9 °F /  17.7 °C 29.8in /  1009.8hPa OSO 4mph /  6.4km/h 5.2mph /  8.4km/h 68% 0in /  0.0mm
08:44 75.4 °F /  24.1 °C 63.9 °F /  17.7 °C 29.8in /  1009.8hPa OSO 3.1mph /  5km/h 5.9mph /  9.5km/h 67.2% 0in /  0.0mm
08:49 75.7 °F /  24.3 °C 63.7 °F /  17.6 °C 29.8in /  1010.0hPa OSO 3.1mph /  5km/h 6mph /  9.7km/h 66.5% 0in /  0.0mm
08:54 76.1 °F /  24.5 °C 63.7 °F /  17.6 °C 29.8in /  1010.0hPa Oeste 3.1mph /  5km/h 6mph /  9.7km/h 65.7% 0in /  0.0mm
08:59 76.3 °F /  24.6 °C 63.7 °F /  17.6 °C 29.8in /  1010.0hPa Oeste 2.9mph /  4.6km/h 6.2mph /  10km/h 65.1% 0in /  0.0mm
09:04 76.5 °F /  24.7 °C 63.9 °F /  17.7 °C 29.8in /  1010.0hPa Oeste 2.4mph /  3.9km/h 6mph /  9.7km/h 65.1% 0in /  0.0mm
09:09 76.6 °F /  24.8 °C 64 °F /  17.8 °C 29.8in /  1010.0hPa SO 2.5mph /  4.1km/h 5.4mph /  8.7km/h 65.1% 0in /  0.0mm
09:14 77.2 °F /  25.1 °C 64.2 °F /  17.9 °C 29.8in /  1010.0hPa Sur 2.9mph /  4.7km/h 6mph /  9.7km/h 64.4% 0in /  0.0mm
09:19 77.4 °F /  25.2 °C 64.2 °F /  17.9 °C 29.8in /  1010.0hPa SE 3.3mph /  5.3km/h 7.4mph /  11.9km/h 64% 0in /  0.0mm
09:24 77.5 °F /  25.3 °C 64.8 °F /  18.2 °C 29.8in /  1010.0hPa SSE 4.3mph /  6.9km/h 7mph /  11.3km/h 64.5% 0in /  0.0mm
09:29 78.1 °F /  25.6 °C 64.8 °F /  18.2 °C 29.8in /  1010.0hPa SSE 4.1mph /  6.6km/h 6mph /  9.7km/h 64% 0in /  0.0mm
09:34 78.3 °F /  25.7 °C 64.8 °F /  18.2 °C 29.8in /  1010.0hPa SSE 3.6mph /  5.8km/h 6.2mph /  10km/h 63.2% 0in /  0.0mm
09:39 78.6 °F /  25.9 °C 64.9 °F /  18.3 °C 29.8in /  1010.0hPa ESE 3.2mph /  5.2km/h 6mph /  9.7km/h 63% 0in /  0.0mm
09:44 79 °F /  26.1 °C 65.3 °F /  18.5 °C 29.8in /  1010.0hPa ESE 2.4mph /  3.9km/h 5.2mph /  8.4km/h 63% 0in /  0.0mm
09:49 79.2 °F /  26.2 °C 65.1 °F /  18.4 °C 29.8in /  1010.0hPa ESE 2.5mph /  4.1km/h 5.8mph /  9.3km/h 62.3% 0in /  0.0mm
09:54 79.7 °F /  26.5 °C 65.3 °F /  18.5 °C 29.8in /  1009.9hPa SE 2.9mph /  4.7km/h 6mph /  9.7km/h 61.4% 0in /  0.0mm
09:59 80.4 °F /  26.9 °C 65.5 °F /  18.6 °C 29.8in /  1009.9hPa SE 2.5mph /  4.1km/h 5.8mph /  9.3km/h 60.3% 0in /  0.0mm
10:04 81 °F /  27.2 °C 65.3 °F /  18.5 °C 29.8in /  1009.9hPa Sur 1.8mph /  2.9km/h 6mph /  9.7km/h 58.9% 0in /  0.0mm
10:09 81.3 °F /  27.4 °C 65.1 °F /  18.4 °C 29.8in /  1009.9hPa SSO 1.8mph /  2.9km/h 5mph /  8km/h 58.1% 0in /  0.0mm
10:14 81.7 °F /  27.6 °C 65.7 °F /  18.7 °C 29.8in /  1009.9hPa SSE 1.8mph /  2.9km/h 6.2mph /  10km/h 58.4% 0in /  0.0mm
10:19 81.7 °F /  27.6 °C 65.5 °F /  18.6 °C 29.8in /  1009.9hPa SSE 2mph /  3.2km/h 6.2mph /  10km/h 58% 0in /  0.0mm
10:24 81.9 °F /  27.7 °C 66 °F /  18.9 °C 29.8in /  1009.8hPa SSE 2.4mph /  3.9km/h 6mph /  9.7km/h 58.5% 0in /  0.0mm
10:29 82.2 °F /  27.9 °C 65.8 °F /  18.8 °C 29.8in /  1009.8hPa SE 2.5mph /  4.1km/h 6.4mph /  10.3km/h 57.9% 0in /  0.0mm
10:34 82.2 °F /  27.9 °C 65.7 °F /  18.7 °C 29.8in /  1009.8hPa SE 2.9mph /  4.7km/h 7mph /  11.3km/h 57.5% 0in /  0.0mm
10:39 82.2 °F /  27.9 °C 65.1 °F /  18.4 °C 29.8in /  1009.8hPa SE 3.1mph /  5km/h 6.2mph /  10km/h 56.3% 0in /  0.0mm
10:44 82.6 °F /  28.1 °C 64.9 °F /  18.3 °C 29.8in /  1009.8hPa SSO 3.6mph /  5.8km/h 6mph /  9.7km/h 55.3% 0in /  0.0mm
10:49 82.8 °F /  28.2 °C 64.8 °F /  18.2 °C 29.8in /  1009.8hPa Sur 3.2mph /  5.2km/h 5mph /  8km/h 54.9% 0in /  0.0mm
10:54 83.3 °F /  28.5 °C 64.8 °F /  18.2 °C 29.8in /  1009.6hPa SO 2.4mph /  3.9km/h 6.2mph /  10km/h 53.6% 0in /  0.0mm
10:59 83.5 °F /  28.6 °C 64.4 °F /  18 °C 29.8in /  1009.6hPa Oeste 2.4mph /  3.9km/h 6mph /  9.7km/h 52.7% 0in /  0.0mm
11:04 83.8 °F /  28.8 °C 64.6 °F /  18.1 °C 29.8in /  1009.6hPa ONO 2.4mph /  3.9km/h 5mph /  8km/h 52.7% 0in /  0.0mm
11:09 84.4 °F /  29.1 °C 64.4 °F /  18 °C 29.8in /  1009.4hPa SE 2.2mph /  3.6km/h 5mph /  8km/h 51.3% 0in /  0.0mm
11:14 84.9 °F /  29.4 °C 64.2 °F /  17.9 °C 29.8in /  1009.4hPa NE 1.8mph /  2.9km/h 5mph /  8km/h 50% 0in /  0.0mm
11:19 85.3 °F /  29.6 °C 64 °F /  17.8 °C 29.8in /  1009.4hPa Oeste 2mph /  3.2km/h 5.2mph /  8.4km/h 49.2% 0in /  0.0mm
11:24 85.5 °F /  29.7 °C 64.6 °F /  18.1 °C 29.8in /  1009.3hPa OSO 2.4mph /  3.9km/h 5mph /  8km/h 49.8% 0in /  0.0mm
11:29 86 °F /  30 °C 64.6 °F /  18.1 °C 29.8in /  1009.3hPa OSO 2.2mph /  3.6km/h 4.7mph /  7.6km/h 49% 0in /  0.0mm
11:34 86.4 °F /  30.2 °C 64.4 °F /  18 °C 29.8in /  1009.3hPa NNO 1.8mph /  2.9km/h 6.9mph /  11.1km/h 47.9% 0in /  0.0mm
11:39 86.4 °F /  30.2 °C 64.2 °F /  17.9 °C 29.8in /  1009.3hPa North 2.2mph /  3.5km/h 7mph /  11.3km/h 47.7% 0in /  0.0mm
11:44 86.5 °F /  30.3 °C 64 °F /  17.8 °C 29.8in /  1009.3hPa NNE 3.1mph /  5km/h 5.2mph /  8.4km/h 47.2% 0in /  0.0mm
11:49 87.1 °F /  30.6 °C 64.4 °F /  18 °C 29.8in /  1009.3hPa North 3mph /  4.9km/h 5mph /  8km/h 47% 0in /  0.0mm
11:54 87.4 °F /  30.8 °C 64.2 °F /  17.9 °C 29.8in /  1009.1hPa NNO 2.9mph /  4.7km/h 5.9mph /  9.5km/h 46.1% 0in /  0.0mm
11:59 88 °F /  31.1 °C 64.6 °F /  18.1 °C 29.8in /  1009.1hPa ENE 2.7mph /  4.4km/h 6.2mph /  10km/h 46.1% 0in /  0.0mm
12:04 88.2 °F /  31.2 °C 64.4 °F /  18 °C 29.8in /  1009.1hPa Este 2.4mph /  3.9km/h 6mph /  9.7km/h 45.3% 0in /  0.0mm
12:09 88.3 °F /  31.3 °C 63.9 °F /  17.7 °C 29.8in /  1008.8hPa ESE 2.8mph /  4.5km/h 7.4mph /  11.9km/h 44.1% 0in /  0.0mm
12:14 88.5 °F /  31.4 °C 63.5 °F /  17.5 °C 29.8in /  1008.8hPa NE 3.6mph /  5.8km/h 7mph /  11.3km/h 43.6% 0in /  0.0mm
12:19 88.7 °F /  31.5 °C 62.8 °F /  17.1 °C 29.8in /  1008.8hPa NNE 3.7mph /  6km/h 8.1mph /  13km/h 42.3% 0in /  0.0mm
12:24 88.9 °F /  31.6 °C 61.3 °F /  16.3 °C 29.8in /  1008.6hPa NNO 4mph /  6.5km/h 8mph /  12.9km/h 40% 0in /  0.0mm
12:29 88.9 °F /  31.6 °C 61.2 °F /  16.2 °C 29.8in /  1008.6hPa North 4.2mph /  6.8km/h 7mph /  11.3km/h 39.6% 0in /  0.0mm
12:34 89.1 °F /  31.7 °C 61.2 °F /  16.2 °C 29.8in /  1008.6hPa NO 4.7mph /  7.6km/h 7mph /  11.3km/h 39.4% 0in /  0.0mm
12:39 89.4 °F /  31.9 °C 60.4 °F /  15.8 °C 29.8in /  1008.5hPa NO 4.3mph /  7km/h 7mph /  11.3km/h 38% 0in /  0.0mm
12:44 90 °F /  32.2 °C 60.6 °F /  15.9 °C 29.8in /  1008.5hPa NNE 3.6mph /  5.8km/h 6mph /  9.7km/h 37.6% 0in /  0.0mm
12:49 90.3 °F /  32.4 °C 59.5 °F /  15.3 °C 29.8in /  1008.5hPa ENE 3.4mph /  5.4km/h 6mph /  9.7km/h 35.8% 0in /  0.0mm
12:54 90.5 °F /  32.5 °C 59.5 °F /  15.3 °C 29.8in /  1008.3hPa ENE 2.9mph /  4.7km/h 6mph /  9.7km/h 35.6% 0in /  0.0mm
12:59 91 °F /  32.8 °C 59.7 °F /  15.4 °C 29.8in /  1008.3hPa Oeste 2.9mph /  4.7km/h 8.1mph /  13km/h 35.2% 0in /  0.0mm
13:04 91.6 °F /  33.1 °C 59.4 °F /  15.2 °C 29.8in /  1008.3hPa ONO 2.9mph /  4.7km/h 8.1mph /  13km/h 34.3% 0in /  0.0mm
13:09 91.9 °F /  33.3 °C 59.5 °F /  15.3 °C 29.8in /  1008.1hPa Oeste 3mph /  4.8km/h 8mph /  12.9km/h 34% 0in /  0.0mm
13:14 92.3 °F /  33.5 °C 59.9 °F /  15.5 °C 29.8in /  1008.1hPa SO 3.1mph /  5km/h 7mph /  11.3km/h 34.1% 0in /  0.0mm
13:19 92.7 °F /  33.7 °C 60.1 °F /  15.6 °C 29.8in /  1008.1hPa NE 3.2mph /  5.2km/h 8.5mph /  13.7km/h 34% 0in /  0.0mm
13:24 91.9 °F /  33.3 °C 59.5 °F /  15.3 °C 29.8in /  1007.9hPa NE 3.6mph /  5.8km/h 9mph /  14.5km/h 34% 0in /  0.0mm
13:29 91.8 °F /  33.2 °C 59.4 °F /  15.2 °C 29.8in /  1007.9hPa NNE 3.6mph /  5.8km/h 7.4mph /  11.9km/h 34.1% 0in /  0.0mm
13:34 91.8 °F /  33.2 °C 59.7 °F /  15.4 °C 29.8in /  1007.9hPa NNE 3.6mph /  5.8km/h 7mph /  11.3km/h 34.4% 0in /  0.0mm
13:39 91.8 °F /  33.2 °C 59.4 °F /  15.2 °C 29.8in /  1007.6hPa NE 3.6mph /  5.8km/h 8.5mph /  13.7km/h 34% 0in /  0.0mm
13:44 91.8 °F /  33.2 °C 59.4 °F /  15.2 °C 29.8in /  1007.6hPa NE 3.6mph /  5.8km/h 9mph /  14.5km/h 34% 0in /  0.0mm
13:49 91.6 °F /  33.1 °C 59.2 °F /  15.1 °C 29.8in /  1007.6hPa NE 3.7mph /  6km/h 7mph /  11.3km/h 34% 0in /  0.0mm
13:54 91.9 °F /  33.3 °C 59.4 °F /  15.2 °C 29.7in /  1007.3hPa NE 4mph /  6.5km/h 6mph /  9.7km/h 33.9% 0in /  0.0mm
13:59 92.3 °F /  33.5 °C 58.8 °F /  14.9 °C 29.7in /  1007.3hPa NE 3.7mph /  5.9km/h 7.4mph /  11.9km/h 32.9% 0in /  0.0mm
14:04 92.7 °F /  33.7 °C 59.4 °F /  15.2 °C 29.7in /  1007.3hPa NNE 2.9mph /  4.6km/h 8.1mph /  13km/h 33% 0in /  0.0mm
14:09 92.8 °F /  33.8 °C 59 °F /  15 °C 29.7in /  1007.3hPa NNE 3.2mph /  5.2km/h 9.7mph /  15.6km/h 32.4% 0in /  0.0mm
14:14 93 °F /  33.9 °C 58.1 °F /  14.5 °C 29.7in /  1007.3hPa North 4mph /  6.5km/h 10mph /  16.1km/h 31.2% 0in /  0.0mm
14:19 93.4 °F /  34.1 °C 58.6 °F /  14.8 °C 29.7in /  1007.3hPa NNE 4mph /  6.5km/h 8.5mph /  13.7km/h 31.4% 0in /  0.0mm
14:24 93.4 °F /  34.1 °C 57.6 °F /  14.2 °C 29.7in /  1007.3hPa NNE 4mph /  6.5km/h 10.4mph /  16.7km/h 30.4% 0in /  0.0mm
14:29 93.6 °F /  34.2 °C 56.8 °F /  13.8 °C 29.7in /  1007.3hPa NE 4.1mph /  6.6km/h 10mph /  16.1km/h 29.2% 0in /  0.0mm
14:34 94.1 °F /  34.5 °C 57.6 °F /  14.2 °C 29.7in /  1007.3hPa NNO 4.3mph /  6.9km/h 7mph /  11.3km/h 29.7% 0in /  0.0mm
14:39 94.5 °F /  34.7 °C 57.4 °F /  14.1 °C 29.7in /  1007.0hPa NNO 3.9mph /  6.3km/h 8.5mph /  13.7km/h 29% 0in /  0.0mm
14:44 94.6 °F /  34.8 °C 57.4 °F /  14.1 °C 29.7in /  1007.0hPa Este 3.1mph /  5km/h 9.7mph /  15.6km/h 29% 0in /  0.0mm
14:49 94.6 °F /  34.8 °C 57.4 °F /  14.1 °C 29.7in /  1007.0hPa ESE 3.2mph /  5.2km/h 10mph /  16.1km/h 29% 0in /  0.0mm
14:54 94.6 °F /  34.8 °C 57.6 °F /  14.2 °C 29.7in /  1006.5hPa OSO 3.6mph /  5.8km/h 8.1mph /  13km/h 29% 0in /  0.0mm
14:59 95.2 °F /  35.1 °C 58.6 °F /  14.8 °C 29.7in /  1006.5hPa SE 3.6mph /  5.8km/h 11.5mph /  18.5km/h 29.7% 0in /  0.0mm
15:04 95.2 °F /  35.1 °C 61 °F /  16.1 °C 29.7in /  1006.5hPa ESE 3.6mph /  5.8km/h 14mph /  22.5km/h 32.4% 0in /  0.0mm
15:09 95.2 °F /  35.1 °C 63.7 °F /  17.6 °C 29.7in /  1006.3hPa ESE 4.6mph /  7.4km/h 14mph /  22.5km/h 35.7% 0in /  0.0mm
15:14 94.8 °F /  34.9 °C 63.3 °F /  17.4 °C 29.7in /  1006.3hPa ESE 6.9mph /  11.1km/h 15mph /  24.1km/h 35.5% 0in /  0.0mm
15:19 94.6 °F /  34.8 °C 64.6 °F /  18.1 °C 29.7in /  1006.3hPa SE 6.9mph /  11.1km/h 15mph /  24.1km/h 37.2% 0in /  0.0mm
15:24 94.8 °F /  34.9 °C 66 °F /  18.9 °C 29.7in /  1006.1hPa SE 6.9mph /  11.1km/h 14mph /  22.5km/h 39% 0in /  0.0mm
15:29 95 °F /  35 °C 66.2 °F /  19 °C 29.7in /  1006.1hPa ESE 7.3mph /  11.7km/h 14mph /  22.5km/h 39.1% 0in /  0.0mm
15:34 94.6 °F /  34.8 °C 66.9 °F /  19.4 °C 29.7in /  1006.1hPa ESE 8.1mph /  13km/h 14mph /  22.5km/h 40.3% 0in /  0.0mm
15:39 94.6 °F /  34.8 °C 67.1 °F /  19.5 °C 29.7in /  1006.0hPa ESE 7.7mph /  12.4km/h 13mph /  20.9km/h 40.7% 0in /  0.0mm
15:44 94.8 °F /  34.9 °C 67.5 °F /  19.7 °C 29.7in /  1006.0hPa Este 6.9mph /  11.1km/h 13mph /  20.9km/h 41% 0in /  0.0mm
15:49 95.2 °F /  35.1 °C 67.8 °F /  19.9 °C 29.7in /  1006.0hPa ESE 7.3mph /  11.7km/h 18.4mph /  29.6km/h 41% 0in /  0.0mm
15:54 95.2 °F /  35.1 °C 68.2 °F /  20.1 °C 29.7in /  1005.9hPa Este 8.1mph /  13km/h 18mph /  29km/h 41.6% 0in /  0.0mm
15:59 95.2 °F /  35.1 °C 68 °F /  20 °C 29.7in /  1005.9hPa Este 8.3mph /  13.4km/h 18.4mph /  29.6km/h 41.5% 0in /  0.0mm
16:04 94.8 °F /  34.9 °C 68.4 °F /  20.2 °C 29.7in /  1005.9hPa ESE 8.7mph /  14km/h 18mph /  29km/h 42.3% 0in /  0.0mm
16:09 95 °F /  35 °C 68 °F /  20 °C 29.7in /  1005.7hPa SE 8.8mph /  14.2km/h 17mph /  27.4km/h 41.6% 0in /  0.0mm
16:14 95.2 °F /  35.1 °C 67.8 °F /  19.9 °C 29.7in /  1005.7hPa ESE 9.2mph /  14.8km/h 16mph /  25.7km/h 41% 0in /  0.0mm
16:19 95.4 °F /  35.2 °C 68 °F /  20 °C 29.7in /  1005.7hPa SE 8.8mph /  14.2km/h 16.1mph /  25.9km/h 41% 0in /  0.0mm
16:24 95.4 °F /  35.2 °C 67.3 °F /  19.6 °C 29.7in /  1005.7hPa ESE 8.1mph /  13km/h 17.3mph /  27.8km/h 40.1% 0in /  0.0mm
16:29 95.4 °F /  35.2 °C 66.4 °F /  19.1 °C 29.7in /  1005.7hPa SE 8.8mph /  14.1km/h 17mph /  27.4km/h 39% 0in /  0.0mm
16:34 95.4 °F /  35.2 °C 66.6 °F /  19.2 °C 29.7in /  1005.7hPa ESE 10.2mph /  16.4km/h 19.6mph /  31.5km/h 39.2% 0in /  0.0mm
16:39 95 °F /  35 °C 65.8 °F /  18.8 °C 29.7in /  1005.4hPa ESE 10.6mph /  17km/h 20mph /  32.2km/h 38.5% 0in /  0.0mm
16:44 95 °F /  35 °C 65.7 °F /  18.7 °C 29.7in /  1005.4hPa ESE 11.4mph /  18.4km/h 19mph /  30.6km/h 38.3% 0in /  0.0mm
16:49 95.2 °F /  35.1 °C 65.1 °F /  18.4 °C 29.7in /  1005.4hPa ESE 11.4mph /  18.3km/h 18.4mph /  29.6km/h 37.4% 0in /  0.0mm
16:54 95 °F /  35 °C 64.6 °F /  18.1 °C 29.7in /  1005.2hPa SE 11.2mph /  18km/h 18mph /  29km/h 37% 0in /  0.0mm
16:59 95.5 °F /  35.3 °C 63.7 °F /  17.6 °C 29.7in /  1005.2hPa ESE 11.1mph /  17.8km/h 17mph /  27.4km/h 35.4% 0in /  0.0mm
17:04 95.9 °F /  35.5 °C 63 °F /  17.2 °C 29.7in /  1005.2hPa ESE 10.7mph /  17.2km/h 18.4mph /  29.6km/h 34% 0in /  0.0mm
17:09 96.1 °F /  35.6 °C 62.2 °F /  16.8 °C 29.7in /  1005.1hPa SE 10.7mph /  17.2km/h 18mph /  29km/h 33.1% 0in /  0.0mm
17:14 96.3 °F /  35.7 °C 61.7 °F /  16.5 °C 29.7in /  1005.1hPa ESE 10.7mph /  17.2km/h 16.1mph /  25.9km/h 32% 0in /  0.0mm
17:19 96.3 °F /  35.7 °C 61.5 °F /  16.4 °C 29.7in /  1005.1hPa SE 10.6mph /  17km/h 16mph /  25.7km/h 32% 0in /  0.0mm
17:24 96.4 °F /  35.8 °C 61.5 °F /  16.4 °C 29.7in /  1004.9hPa SE 10.2mph /  16.4km/h 17.3mph /  27.8km/h 31.8% 0in /  0.0mm
17:29 96.3 °F /  35.7 °C 61.3 °F /  16.3 °C 29.7in /  1004.9hPa SE 10.1mph /  16.3km/h 17mph /  27.4km/h 31.7% 0in /  0.0mm
17:34 96.3 °F /  35.7 °C 61.3 °F /  16.3 °C 29.7in /  1004.9hPa SE 10mph /  16.1km/h 16.3mph /  26.2km/h 31.6% 0in /  0.0mm
17:39 96.4 °F /  35.8 °C 60.4 °F /  15.8 °C 29.7in /  1004.8hPa SE 9.6mph /  15.5km/h 18.4mph /  29.6km/h 30.5% 0in /  0.0mm
17:44 96.3 °F /  35.7 °C 59.5 °F /  15.3 °C 29.7in /  1004.8hPa SE 8.7mph /  14km/h 18.4mph /  29.6km/h 29.7% 0in /  0.0mm
17:49 96.3 °F /  35.7 °C 58.8 °F /  14.9 °C 29.7in /  1004.8hPa SE 9.4mph /  15.2km/h 18.5mph /  29.8km/h 29% 0in /  0.0mm
17:54 96.1 °F /  35.6 °C 59.5 °F /  15.3 °C 29.7in /  1004.6hPa SSE 11.8mph /  19km/h 19mph /  30.6km/h 30% 0in /  0.0mm
17:59 96.3 °F /  35.7 °C 59.7 °F /  15.4 °C 29.7in /  1004.6hPa SE 11.7mph /  18.8km/h 17.8mph /  28.6km/h 30% 0in /  0.0mm
18:04 96.1 °F /  35.6 °C 59.5 °F /  15.3 °C 29.7in /  1004.6hPa SE 11.4mph /  18.4km/h 18.5mph /  29.8km/h 29.9% 0in /  0.0mm
18:09 95.9 °F /  35.5 °C 59.2 °F /  15.1 °C 29.7in /  1004.4hPa SE 11.7mph /  18.8km/h 20.8mph /  33.5km/h 29.6% 0in /  0.0mm
18:14 95.7 °F /  35.4 °C 59.4 °F /  15.2 °C 29.7in /  1004.4hPa SE 12.3mph /  19.8km/h 21mph /  33.8km/h 30.1% 0in /  0.0mm
18:19 95.5 °F /  35.3 °C 59.5 °F /  15.3 °C 29.7in /  1004.4hPa SE 12.4mph /  19.9km/h 20mph /  32.2km/h 30.4% 0in /  0.0mm
18:24 95.2 °F /  35.1 °C 59.7 °F /  15.4 °C 29.7in /  1004.3hPa SE 12.5mph /  20.1km/h 20mph /  32.2km/h 30.9% 0in /  0.0mm
18:29 95.5 °F /  35.3 °C 60.1 °F /  15.6 °C 29.7in /  1004.3hPa SE 12.2mph /  19.6km/h 19mph /  30.6km/h 31% 0in /  0.0mm
18:34 95.5 °F /  35.3 °C 60.1 °F /  15.6 °C 29.7in /  1004.3hPa SE 11.4mph /  18.4km/h 18.4mph /  29.6km/h 31% 0in /  0.0mm
18:39 95.4 °F /  35.2 °C 59.9 °F /  15.5 °C 29.7in /  1004.2hPa SE 11.1mph /  17.8km/h 18mph /  29km/h 31% 0in /  0.0mm
18:44 95.4 °F /  35.2 °C 59.5 °F /  15.3 °C 29.7in /  1004.2hPa SE 10.2mph /  16.4km/h 18.4mph /  29.6km/h 30.6% 0in /  0.0mm
18:49 95.4 °F /  35.2 °C 60.4 °F /  15.8 °C 29.7in /  1004.2hPa SE 10.1mph /  16.3km/h 18mph /  29km/h 31.5% 0in /  0.0mm
18:54 95 °F /  35 °C 61 °F /  16.1 °C 29.7in /  1004.1hPa SE 10mph /  16.1km/h 17.5mph /  28.2km/h 32.4% 0in /  0.0mm
18:59 94.6 °F /  34.8 °C 61.7 °F /  16.5 °C 29.7in /  1004.1hPa SE 10.3mph /  16.5km/h 17mph /  27.4km/h 33.6% 0in /  0.0mm
19:04 94.8 °F /  34.9 °C 62.1 °F /  16.7 °C 29.7in /  1004.1hPa SE 10.7mph /  17.2km/h 16mph /  25.7km/h 34% 0in /  0.0mm
19:09 94.6 °F /  34.8 °C 62.1 °F /  16.7 °C 29.7in /  1004.1hPa SE 10mph /  16.1km/h 15.2mph /  24.5km/h 34% 0in /  0.0mm
19:14 94.6 °F /  34.8 °C 61.9 °F /  16.6 °C 29.7in /  1004.1hPa SSE 8.5mph /  13.7km/h 15mph /  24.1km/h 34% 0in /  0.0mm
19:19 94.6 °F /  34.8 °C 61.5 °F /  16.4 °C 29.7in /  1004.2hPa ESE 8.1mph /  13.1km/h 12mph /  19.3km/h 33.5% 0in /  0.0mm
19:24 94.5 °F /  34.7 °C 61 °F /  16.1 °C 29.7in /  1004.2hPa SE 7.4mph /  11.9km/h 12mph /  19.3km/h 33% 0in /  0.0mm
19:29 94.5 °F /  34.7 °C 60.4 °F /  15.8 °C 29.7in /  1004.2hPa SE 7.2mph /  11.6km/h 13.8mph /  22.2km/h 32.5% 0in /  0.0mm
19:34 94.6 °F /  34.8 °C 60.6 °F /  15.9 °C 29.7in /  1004.2hPa SE 6.9mph /  11.1km/h 14mph /  22.5km/h 32.5% 0in /  0.0mm
19:39 94.8 °F /  34.9 °C 60.4 °F /  15.8 °C 29.7in /  1004.2hPa SSE 6.4mph /  10.3km/h 8.1mph /  13km/h 32.2% 0in /  0.0mm
19:44 94.8 °F /  34.9 °C 60.1 °F /  15.6 °C 29.7in /  1004.2hPa SSE 5.2mph /  8.4km/h 8.1mph /  13km/h 31.7% 0in /  0.0mm
19:49 94.8 °F /  34.9 °C 59.7 °F /  15.4 °C 29.7in /  1004.3hPa SE 5mph /  8.1km/h 8mph /  12.9km/h 31.3% 0in /  0.0mm
19:54 94.6 °F /  34.8 °C 59.4 °F /  15.2 °C 29.7in /  1004.3hPa SE 4.7mph /  7.6km/h 8.1mph /  13km/h 31% 0in /  0.0mm
19:59 94.6 °F /  34.8 °C 59.4 °F /  15.2 °C 29.7in /  1004.3hPa SSE 4.5mph /  7.2km/h 8mph /  12.9km/h 31% 0in /  0.0mm
20:04 94.6 °F /  34.8 °C 59.4 °F /  15.2 °C 29.7in /  1004.3hPa SE 4mph /  6.5km/h 8.7mph /  14km/h 31% 0in /  0.0mm
20:09 94.6 °F /  34.8 °C 59.4 °F /  15.2 °C 29.7in /  1004.2hPa SE 4.3mph /  7km/h 9.2mph /  14.8km/h 31% 0in /  0.0mm
20:14 94.5 °F /  34.7 °C 59.5 °F /  15.3 °C 29.7in /  1004.2hPa ESE 5.2mph /  8.4km/h 8.5mph /  13.7km/h 31.5% 0in /  0.0mm
20:19 93.9 °F /  34.4 °C 59.5 °F /  15.3 °C 29.7in /  1004.2hPa ESE 5.2mph /  8.4km/h 9mph /  14.5km/h 32% 0in /  0.0mm
20:24 93.7 °F /  34.3 °C 59.5 °F /  15.3 °C 29.7in /  1004.2hPa ESE 5.2mph /  8.4km/h 8.1mph /  13km/h 32.3% 0in /  0.0mm
20:29 93.4 °F /  34.1 °C 59.9 °F /  15.5 °C 29.7in /  1004.2hPa ESE 5.3mph /  8.5km/h 8.5mph /  13.7km/h 32.8% 0in /  0.0mm
20:34 93 °F /  33.9 °C 59.5 °F /  15.3 °C 29.7in /  1004.3hPa ESE 5.4mph /  8.7km/h 9.2mph /  14.8km/h 32.8% 0in /  0.0mm
20:39 92.8 °F /  33.8 °C 59.5 °F /  15.3 °C 29.7in /  1004.3hPa ESE 5.7mph /  9.1km/h 9mph /  14.5km/h 33% 0in /  0.0mm
20:44 92.7 °F /  33.7 °C 59.9 °F /  15.5 °C 29.7in /  1004.3hPa ESE 6.2mph /  10km/h 9.2mph /  14.8km/h 33.6% 0in /  0.0mm
20:49 92.7 °F /  33.7 °C 60.1 °F /  15.6 °C 29.7in /  1004.4hPa SE 5.9mph /  9.5km/h 9mph /  14.5km/h 34% 0in /  0.0mm
20:54 92.5 °F /  33.6 °C 60.6 °F /  15.9 °C 29.7in /  1004.4hPa SE 5.2mph /  8.4km/h 9.2mph /  14.8km/h 34.8% 0in /  0.0mm
20:59 92.1 °F /  33.4 °C 60.6 °F /  15.9 °C 29.7in /  1004.4hPa SE 4.9mph /  7.9km/h 8mph /  12.9km/h 35% 0in /  0.0mm
21:04 92.1 °F /  33.4 °C 60.4 °F /  15.8 °C 29.7in /  1004.4hPa SE 4.3mph /  6.9km/h 6.2mph /  10km/h 35% 0in /  0.0mm
21:09 92.1 °F /  33.4 °C 60.4 °F /  15.8 °C 29.7in /  1004.4hPa SE 3.9mph /  6.3km/h 6mph /  9.7km/h 35% 0in /  0.0mm
21:14 92.1 °F /  33.4 °C 60.4 °F /  15.8 °C 29.7in /  1004.4hPa SSE 3.1mph /  5km/h 5mph /  8km/h 35% 0in /  0.0mm
21:19 92.1 °F /  33.4 °C 59.9 °F /  15.5 °C 29.7in /  1004.5hPa SO 2.7mph /  4.4km/h 4.7mph /  7.6km/h 34.3% 0in /  0.0mm
21:24 92.3 °F /  33.5 °C 60.3 °F /  15.7 °C 29.7in /  1004.5hPa OSO 2mph /  3.2km/h 5.9mph /  9.5km/h 34.5% 0in /  0.0mm
21:29 92.3 °F /  33.5 °C 60.6 °F /  15.9 °C 29.7in /  1004.5hPa OSO 2.4mph /  3.8km/h 6mph /  9.7km/h 35% 0in /  0.0mm
21:34 92.3 °F /  33.5 °C 60.8 °F /  16 °C 29.7in /  1004.8hPa ONO 3.1mph /  5km/h 5.2mph /  8.4km/h 35% 0in /  0.0mm
21:39 92.1 °F /  33.4 °C 61.2 °F /  16.2 °C 29.7in /  1004.8hPa NNO 3mph /  4.9km/h 5mph /  8km/h 35.7% 0in /  0.0mm
21:44 91.8 °F /  33.2 °C 61 °F /  16.1 °C 29.7in /  1004.8hPa NNO 2.9mph /  4.7km/h 5mph /  8km/h 36% 0in /  0.0mm
21:49 91 °F /  32.8 °C 61.9 °F /  16.6 °C 29.7in /  1005.2hPa North 2.9mph /  4.7km/h 15.2mph /  24.5km/h 38.1% 0in /  0.0mm
21:54 89.1 °F /  31.7 °C 65.1 °F /  18.4 °C 29.7in /  1005.2hPa NNE 3.1mph /  5km/h 15mph /  24.1km/h 45.2% 0in /  0.0mm
21:59 87.1 °F /  30.6 °C 66.2 °F /  19 °C 29.7in /  1005.2hPa NE 4.7mph /  7.5km/h 13mph /  20.9km/h 50.2% 0in /  0.0mm
22:04 85.8 °F /  29.9 °C 67.5 °F /  19.7 °C 29.7in /  1005.3hPa NE 7.6mph /  12.2km/h 17.3mph /  27.8km/h 54.4% 0in /  0.0mm
22:09 84.7 °F /  29.3 °C 67.8 °F /  19.9 °C 29.7in /  1005.3hPa NE 7.6mph /  12.2km/h 17mph /  27.4km/h 57% 0in /  0.0mm
22:14 84.2 °F /  29 °C 68 °F /  20 °C 29.7in /  1005.3hPa NE 7.6mph /  12.2km/h 13mph /  20.9km/h 58.4% 0in /  0.0mm
22:19 83.8 °F /  28.8 °C 67.8 °F /  19.9 °C 29.7in /  1005.5hPa NE 7.5mph /  12.1km/h 12.7mph /  20.4km/h 58.6% 0in /  0.0mm
22:24 83.7 °F /  28.7 °C 67.1 °F /  19.5 °C 29.7in /  1005.5hPa NE 7.4mph /  11.9km/h 14.5mph /  23.3km/h 57.5% 0in /  0.0mm
22:29 83.5 °F /  28.6 °C 66.2 °F /  19 °C 29.7in /  1005.5hPa NNE 7.6mph /  12.2km/h 15mph /  24.1km/h 56% 0in /  0.0mm
22:34 83.5 °F /  28.6 °C 66 °F /  18.9 °C 29.7in /  1005.7hPa NNE 8.1mph /  13km/h 15mph /  24.1km/h 56% 0in /  0.0mm
22:39 83.3 °F /  28.5 °C 66.4 °F /  19.1 °C 29.7in /  1005.7hPa NNE 7.9mph /  12.7km/h 13mph /  20.9km/h 56.8% 0in /  0.0mm
22:44 83.1 °F /  28.4 °C 66.4 °F /  19.1 °C 29.7in /  1005.7hPa NNE 7.4mph /  11.9km/h 12mph /  19.3km/h 57% 0in /  0.0mm
22:49 82.9 °F /  28.3 °C 66.4 °F /  19.1 °C 29.7in /  1005.9hPa NE 7mph /  11.2km/h 10.4mph /  16.7km/h 57.6% 0in /  0.0mm
22:54 82.9 °F /  28.3 °C 66.6 °F /  19.2 °C 29.7in /  1005.9hPa NE 5.9mph /  9.5km/h 10mph /  16.1km/h 58% 0in /  0.0mm
22:59 82.8 °F /  28.2 °C 66.6 °F /  19.2 °C 29.7in /  1005.9hPa NE 5.7mph /  9.2km/h 11.2mph /  18km/h 58% 0in /  0.0mm
23:04 82.8 °F /  28.2 °C 66.6 °F /  19.2 °C 29.7in /  1006.0hPa NE 5.4mph /  8.7km/h 12mph /  19.3km/h 58.3% 0in /  0.0mm
23:09 82.6 °F /  28.1 °C 66.7 °F /  19.3 °C 29.7in /  1006.0hPa NNE 5.7mph /  9.1km/h 10mph /  16.1km/h 59% 0in /  0.0mm
23:14 82.4 °F /  28 °C 66.6 °F /  19.2 °C 29.7in /  1006.0hPa NNE 6.2mph /  10km/h 10.7mph /  17.2km/h 59% 0in /  0.0mm
23:19 82.2 °F /  27.9 °C 66.9 °F /  19.4 °C 29.7in /  1006.0hPa NNE 6.2mph /  10km/h 11mph /  17.7km/h 59.9% 0in /  0.0mm
23:24 82 °F /  27.8 °C 66.6 °F /  19.2 °C 29.7in /  1006.0hPa NNE 6.2mph /  10km/h 10mph /  16.1km/h 59.5% 0in /  0.0mm
23:29 82 °F /  27.8 °C 66.4 °F /  19.1 °C 29.7in /  1006.0hPa NNE 5.9mph /  9.5km/h 9mph /  14.5km/h 59% 0in /  0.0mm
23:34 82 °F /  27.8 °C 66.7 °F /  19.3 °C 29.7in /  1006.2hPa NNE 5.2mph /  8.4km/h 7mph /  11.3km/h 59.8% 0in /  0.0mm
23:39 82 °F /  27.8 °C 66.7 °F /  19.3 °C 29.7in /  1006.2hPa NNE 4.7mph /  7.5km/h 6.9mph /  11.1km/h 60% 0in /  0.0mm
23:44 82 °F /  27.8 °C 66.9 °F /  19.4 °C 29.7in /  1006.2hPa NNE 3.6mph /  5.8km/h 7mph /  11.3km/h 60.2% 0in /  0.0mm
23:49 81.9 °F /  27.7 °C 67.1 °F /  19.5 °C 29.7in /  1006.4hPa NNE 3.6mph /  5.8km/h 7mph /  11.3km/h 61% 0in /  0.0mm
23:54 81.9 °F /  27.7 °C 67.1 °F /  19.5 °C 29.7in /  1006.4hPa NNE 3.6mph /  5.8km/h 7mph /  11.3km/h 61% 0in /  0.0mm
23:59 81.7 °F /  27.6 °C 67.1 °F /  19.5 °C 29.7in /  1006.4hPa NNE 3.4mph /  5.5km/h 5.9mph /  9.5km/h 61.2% 0in /  0.0mm
Murcia-Puente Tocinos, España
Compliments of Weather Underground - 3 mb

La estación de MeteoMurcia.com, publica sus datos en los siguientes proyectos:

Weather Underground PWS IMURCIAP2 Meteoclimatic www.awekas.at

W3Counter
Web Analytics